createdAt,value
2019-05-14T00:01:22.607Z,101322.00
2019-05-14T00:03:28.050Z,101319.00
2019-05-14T00:05:33.603Z,101311.00
2019-05-14T00:07:41.387Z,101306.00
2019-05-14T00:09:46.447Z,101313.00
2019-05-14T00:11:52.135Z,101307.00
2019-05-14T00:13:57.287Z,101316.00
2019-05-14T00:16:02.514Z,101323.00
2019-05-14T00:18:08.206Z,101319.00
2019-05-14T00:20:13.961Z,101320.00
2019-05-14T00:22:19.082Z,101310.00
2019-05-14T00:24:24.144Z,101317.00
2019-05-14T00:26:31.832Z,101316.00
2019-05-14T00:28:36.668Z,101324.00
2019-05-14T00:30:42.310Z,101325.00
2019-05-14T00:32:47.567Z,101312.00
2019-05-14T00:34:52.682Z,101312.00
2019-05-14T00:36:57.780Z,101318.00
2019-05-14T00:39:03.380Z,101306.00
2019-05-14T00:41:10.994Z,101314.00
2019-05-14T00:43:15.742Z,101306.00
2019-05-14T00:45:21.797Z,101312.00
2019-05-14T00:47:27.237Z,101307.00
2019-05-14T00:49:32.413Z,101305.00
2019-05-14T00:51:37.854Z,101306.00
2019-05-14T00:53:42.995Z,101306.00
2019-05-14T00:55:48.204Z,101321.00
2019-05-14T00:57:53.207Z,101317.00
2019-05-14T01:00:00.933Z,101314.00
2019-05-14T01:02:07.944Z,101316.00
2019-05-14T01:04:14.552Z,101308.00
2019-05-14T01:06:21.911Z,101312.00
2019-05-14T01:08:31.959Z,101311.00
2019-05-14T01:10:37.011Z,101303.00
2019-05-14T01:12:42.269Z,101297.00
2019-05-14T01:14:47.219Z,101297.00
2019-05-14T01:16:52.386Z,101291.00
2019-05-14T01:18:57.470Z,101293.00
2019-05-14T01:21:02.876Z,101305.00
2019-05-14T01:23:08.397Z,101297.00
2019-05-14T01:25:13.826Z,101298.00
2019-05-14T01:27:21.108Z,101295.00
2019-05-14T01:29:27.048Z,101298.00
2019-05-14T01:31:32.165Z,101292.00
2019-05-14T01:33:37.678Z,101297.00
2019-05-14T01:35:43.821Z,101296.00
2019-05-14T01:37:49.125Z,101287.00
2019-05-14T01:39:54.199Z,101291.00
2019-05-14T01:41:59.375Z,101286.00
2019-05-14T01:44:04.580Z,101296.00
2019-05-14T01:46:12.000Z,101287.00
2019-05-14T01:48:16.462Z,101290.00
2019-05-14T01:50:21.779Z,101284.00
2019-05-14T01:52:27.248Z,101283.00
2019-05-14T01:54:32.309Z,101275.00
2019-05-14T01:56:37.714Z,101272.00
2019-05-14T01:58:42.840Z,101281.00
2019-05-14T02:00:52.106Z,101265.00
2019-05-14T02:02:56.863Z,101271.00
2019-05-14T02:05:02.447Z,101276.00
2019-05-14T02:07:07.943Z,101273.00
2019-05-14T02:09:13.658Z,101275.00
2019-05-14T02:11:21.264Z,101267.00
2019-05-14T02:13:26.642Z,101256.00
2019-05-14T02:15:39.070Z,101256.00
2019-05-14T02:17:41.479Z,101257.00
2019-05-14T02:19:46.580Z,101238.00
2019-05-14T02:21:52.335Z,101252.00
2019-05-14T02:23:57.953Z,101250.00
2019-05-14T02:26:03.421Z,101237.00
2019-05-14T02:28:08.621Z,101229.00
2019-05-14T02:30:14.448Z,101231.00
2019-05-14T02:32:19.827Z,101226.00
2019-05-14T02:34:25.543Z,101223.00
2019-05-14T02:36:31.203Z,101217.00
2019-05-14T02:38:38.904Z,101214.00
2019-05-14T02:40:43.143Z,101216.00
2019-05-14T02:42:49.766Z,101224.00
2019-05-14T02:44:55.123Z,101220.00
2019-05-14T02:47:01.386Z,101206.00
2019-05-14T02:49:10.170Z,101205.00
2019-05-14T02:51:13.802Z,101222.00
2019-05-14T02:53:20.096Z,101208.00
2019-05-14T02:55:25.332Z,101218.00
2019-05-14T02:57:30.615Z,101216.00
2019-05-14T02:59:35.695Z,101212.00
2019-05-14T03:01:41.166Z,101213.00
2019-05-14T03:03:49.269Z,101216.00
2019-05-14T03:05:53.909Z,101220.00
2019-05-14T03:08:00.077Z,101207.00
2019-05-14T03:10:06.142Z,101207.00
2019-05-14T03:12:11.999Z,101205.00
2019-05-14T03:14:19.605Z,101213.00
2019-05-14T03:16:31.221Z,101217.00
2019-05-14T03:18:31.357Z,101214.00
2019-05-14T03:20:39.003Z,101215.00
2019-05-14T03:22:58.749Z,101223.00
2019-05-14T03:24:50.883Z,101218.00
2019-05-14T03:26:58.517Z,101219.00
2019-05-14T03:29:03.363Z,101223.00
2019-05-14T03:31:12.629Z,101225.00
2019-05-14T03:33:21.375Z,101233.00
2019-05-14T03:35:28.802Z,101234.00
2019-05-14T03:37:31.027Z,101239.00
2019-05-14T03:39:39.416Z,101246.00
2019-05-14T03:41:43.847Z,101246.00
2019-05-14T03:43:49.624Z,101233.00
2019-05-14T03:45:55.249Z,101238.00
2019-05-14T03:48:00.968Z,101240.00
2019-05-14T03:50:09.884Z,101242.00
2019-05-14T03:52:14.013Z,101241.00
2019-05-14T03:54:19.655Z,101231.00
2019-05-14T03:56:25.047Z,101224.00
2019-05-14T03:58:30.613Z,101218.00
2019-05-14T04:01:00.430Z,101226.00
2019-05-14T04:03:09.479Z,101205.00
2019-05-14T04:05:13.289Z,101214.00
2019-05-14T04:07:20.197Z,101215.00
2019-05-14T04:09:29.184Z,101213.00
2019-05-14T04:11:34.975Z,101219.00
2019-05-14T04:13:43.899Z,101211.00
2019-05-14T04:15:51.623Z,101208.00
2019-05-14T04:17:59.662Z,101216.00
2019-05-14T04:20:09.136Z,101211.00
2019-05-14T04:22:14.915Z,101211.00
2019-05-14T04:24:23.093Z,101215.00
2019-05-14T04:26:30.393Z,101223.00
2019-05-14T04:28:39.319Z,101222.00
2019-05-14T04:30:49.298Z,101220.00
2019-05-14T04:32:59.430Z,101234.00
2019-05-14T04:35:04.916Z,101223.00
2019-05-14T04:37:10.659Z,101229.00
2019-05-14T04:39:15.825Z,101228.00
2019-05-14T04:41:20.922Z,101221.00
2019-05-14T04:43:29.183Z,101228.00
2019-05-14T04:45:33.940Z,101214.00
2019-05-14T04:47:42.170Z,101231.00
2019-05-14T04:49:46.295Z,101236.00
2019-05-14T04:51:51.475Z,101221.00
2019-05-14T04:53:59.588Z,101224.00
2019-05-14T04:56:03.695Z,101219.00
2019-05-14T04:58:10.193Z,101225.00
2019-05-14T05:00:15.517Z,101225.00
2019-05-14T05:02:21.067Z,101217.00
2019-05-14T05:04:29.611Z,101224.00
2019-05-14T05:06:33.624Z,101217.00
2019-05-14T05:08:39.726Z,101223.00
2019-05-14T05:10:45.022Z,101214.00
2019-05-14T05:12:50.452Z,101199.00
2019-05-14T05:14:58.474Z,101208.00
2019-05-14T05:17:02.917Z,101204.00
2019-05-14T05:19:10.359Z,101207.00
2019-05-14T05:21:15.456Z,101208.00
2019-05-14T05:23:20.631Z,101213.00
2019-05-14T05:25:26.362Z,101210.00
2019-05-14T05:27:32.358Z,101206.00
2019-05-14T05:29:39.226Z,101216.00
2019-05-14T05:31:44.507Z,101211.00
2019-05-14T05:33:49.992Z,101212.00
2019-05-14T05:35:55.042Z,101206.00
2019-05-14T05:38:00.896Z,101201.00
2019-05-14T05:40:08.955Z,101203.00
2019-05-14T05:42:14.699Z,101208.00
2019-05-14T05:44:19.884Z,101201.00
2019-05-14T05:46:24.902Z,101202.00
2019-05-14T05:48:30.648Z,101185.00
2019-05-14T05:50:35.994Z,101194.00
2019-05-14T05:52:41.863Z,101201.00
2019-05-14T05:54:49.073Z,101193.00
2019-05-14T05:56:54.312Z,101199.00
2019-05-14T05:59:00.669Z,101201.00
2019-05-14T06:01:09.345Z,101199.00
2019-05-14T06:03:13.122Z,101196.00
2019-05-14T06:05:18.742Z,101188.00
2019-05-14T06:07:23.817Z,101186.00
2019-05-14T06:09:28.932Z,101185.00
2019-05-14T06:11:34.384Z,101174.00
2019-05-14T06:13:39.948Z,101175.00
2019-05-14T06:15:49.466Z,101176.00
2019-05-14T06:17:52.290Z,101179.00
2019-05-14T06:19:59.151Z,101171.00
2019-05-14T06:22:06.207Z,101170.00
2019-05-14T06:24:11.811Z,101176.00
2019-05-14T06:26:19.121Z,101174.00
2019-05-14T06:28:30.142Z,101174.00
2019-05-14T06:30:39.495Z,101173.00
2019-05-14T06:32:44.633Z,101182.00
2019-05-14T06:34:49.963Z,101172.00
2019-05-14T06:36:55.669Z,101170.00
2019-05-14T06:39:00.852Z,101178.00
2019-05-14T06:41:08.208Z,101175.00
2019-05-14T06:43:12.853Z,101177.00
2019-05-14T06:45:18.782Z,101168.00
2019-05-14T06:47:24.862Z,101165.00
2019-05-14T06:49:29.813Z,101176.00
2019-05-14T06:51:35.553Z,101174.00
2019-05-14T06:53:41.750Z,101171.00
2019-05-14T06:55:48.370Z,101166.00
2019-05-14T06:57:55.119Z,101167.00
2019-05-14T07:00:00.577Z,101162.00
2019-05-14T07:02:08.490Z,101155.00
2019-05-14T07:04:13.285Z,101150.00
2019-05-14T07:06:18.830Z,101141.00
2019-05-14T07:08:23.883Z,101141.00
2019-05-14T07:10:28.974Z,101141.00
2019-05-14T07:12:34.083Z,101143.00
2019-05-14T07:14:39.774Z,101152.00
2019-05-14T07:16:45.471Z,101146.00
2019-05-14T07:18:53.984Z,101149.00
2019-05-14T07:20:58.835Z,101145.00
2019-05-14T07:23:04.822Z,101144.00
2019-05-14T07:25:10.802Z,101147.00
2019-05-14T07:27:15.981Z,101137.00
2019-05-14T07:29:21.758Z,101143.00
2019-05-14T07:31:29.123Z,101154.00
2019-05-14T07:33:34.720Z,101139.00
2019-05-14T07:35:40.527Z,101137.00
2019-05-14T07:37:48.696Z,101135.00
2019-05-14T07:39:53.396Z,101139.00
2019-05-14T07:41:59.230Z,101131.00
2019-05-14T07:44:04.692Z,101133.00
2019-05-14T07:46:09.733Z,101123.00
2019-05-14T07:48:15.464Z,101129.00
2019-05-14T07:50:20.824Z,101124.00
2019-05-14T07:52:28.283Z,101127.00
2019-05-14T07:54:32.735Z,101124.00
2019-05-14T07:56:38.454Z,101121.00
2019-05-14T07:58:43.814Z,101127.00
2019-05-14T08:00:49.343Z,101107.00
2019-05-14T08:02:54.392Z,101119.00
2019-05-14T08:04:59.493Z,101126.00
2019-05-14T08:07:04.679Z,101128.00
2019-05-14T08:09:10.843Z,101125.00
2019-05-14T08:11:16.259Z,101124.00
2019-05-14T08:13:21.685Z,101118.00
2019-05-14T08:15:28.000Z,101123.00
2019-05-14T08:17:33.485Z,101115.00
2019-05-14T08:19:38.818Z,101122.00
2019-05-14T08:21:43.842Z,101116.00
2019-05-14T08:23:48.858Z,101107.00
2019-05-14T08:25:55.028Z,101112.00
2019-05-14T08:28:00.142Z,101102.00
2019-05-14T08:30:08.196Z,101106.00
2019-05-14T08:32:13.316Z,101109.00
2019-05-14T08:34:19.161Z,101110.00
2019-05-14T08:36:24.620Z,101118.00
2019-05-14T08:38:30.108Z,101104.00
2019-05-14T08:40:35.181Z,101096.00
2019-05-14T08:42:40.283Z,101099.00
2019-05-14T08:44:50.346Z,101101.00
2019-05-14T08:46:52.532Z,101104.00
2019-05-14T08:48:58.570Z,101114.00
2019-05-14T08:51:03.966Z,101107.00
2019-05-14T08:53:09.242Z,101104.00
2019-05-14T08:55:14.633Z,101101.00
2019-05-14T08:57:20.551Z,101100.00
2019-05-14T08:59:25.739Z,101092.00
2019-05-14T09:01:30.810Z,101100.00
2019-05-14T09:03:35.921Z,101088.00
2019-05-14T09:05:41.398Z,101084.00
2019-05-14T09:07:49.050Z,101078.00
2019-05-14T09:09:54.023Z,101073.00
2019-05-14T09:12:00.034Z,101068.00
2019-05-14T09:14:05.530Z,101059.00
2019-05-14T09:16:10.711Z,101058.00
2019-05-14T09:18:18.282Z,101058.00
2019-05-14T09:20:22.962Z,101058.00
2019-05-14T09:22:28.931Z,101059.00
2019-05-14T09:24:34.355Z,101038.00
2019-05-14T09:26:39.526Z,101050.00
2019-05-14T09:28:44.973Z,101039.00
2019-05-14T09:30:50.318Z,101033.00
2019-05-14T09:32:56.273Z,101044.00
2019-05-14T09:35:01.932Z,101045.00
2019-05-14T09:37:08.638Z,101050.00
2019-05-14T09:39:14.075Z,101055.00
2019-05-14T09:41:19.267Z,101045.00
2019-05-14T09:43:25.264Z,101054.00
2019-05-14T09:45:30.699Z,101059.00
2019-05-14T09:47:35.928Z,101057.00
2019-05-14T09:49:41.049Z,101050.00
2019-05-14T09:51:46.132Z,101060.00
2019-05-14T09:53:51.470Z,101056.00
2019-05-14T09:55:58.345Z,101052.00
2019-05-14T09:58:03.938Z,101047.00
2019-05-14T10:00:10.662Z,101041.00
2019-05-14T10:02:16.200Z,101044.00
2019-05-14T10:04:22.042Z,101046.00
2019-05-14T10:06:28.447Z,101034.00
2019-05-14T10:08:33.974Z,101035.00
2019-05-14T10:10:40.067Z,101034.00
2019-05-14T10:12:54.018Z,101039.00
2019-05-14T10:14:52.391Z,101035.00
2019-05-14T10:16:58.273Z,101029.00
2019-05-14T10:19:03.560Z,101024.00
2019-05-14T10:21:08.825Z,101044.00
2019-05-14T10:23:14.434Z,101054.00
2019-05-14T10:25:19.607Z,101056.00
2019-05-14T10:27:25.263Z,101043.00
2019-05-14T10:29:30.695Z,101043.00
2019-05-14T10:31:36.209Z,101047.00
2019-05-14T10:33:41.698Z,101043.00
2019-05-14T10:35:48.494Z,101057.00
2019-05-14T10:37:54.499Z,101045.00
2019-05-14T10:39:59.703Z,101043.00
2019-05-14T10:42:04.975Z,101046.00
2019-05-14T10:44:10.410Z,101044.00
2019-05-14T10:46:15.612Z,101042.00
2019-05-14T10:48:21.438Z,101040.00
2019-05-14T10:50:28.819Z,101034.00
2019-05-14T10:52:33.509Z,101039.00
2019-05-14T10:54:47.816Z,101033.00
2019-05-14T10:56:45.544Z,101039.00
2019-05-14T10:58:50.823Z,101026.00
2019-05-14T11:00:58.653Z,101021.00
2019-05-14T11:03:03.741Z,101018.00
2019-05-14T11:05:09.142Z,101009.00
2019-05-14T11:07:14.589Z,100995.00
2019-05-14T11:09:20.327Z,100992.00
2019-05-14T11:11:25.544Z,100998.00
2019-05-14T11:13:31.350Z,101001.00
2019-05-14T11:15:39.269Z,100990.00
2019-05-14T11:17:43.633Z,100991.00
2019-05-14T11:19:48.825Z,100985.00
2019-05-14T11:21:54.207Z,100978.00
2019-05-14T11:23:59.389Z,100986.00
2019-05-14T11:26:04.934Z,100979.00
2019-05-14T11:28:10.512Z,100974.00
2019-05-14T11:30:16.158Z,100975.00
2019-05-14T11:32:21.325Z,100970.00
2019-05-14T11:34:28.730Z,100974.00
2019-05-14T11:36:33.539Z,100968.00
2019-05-14T11:38:39.430Z,100965.00
2019-05-14T11:40:44.618Z,100969.00
2019-05-14T11:42:49.798Z,100967.00
2019-05-14T11:44:55.319Z,100942.00
2019-05-14T11:47:02.543Z,100950.00
2019-05-14T11:49:08.849Z,100951.00
2019-05-14T11:51:14.808Z,100945.00
2019-05-14T11:53:20.534Z,100952.00
2019-05-14T11:55:25.548Z,100957.00
2019-05-14T11:57:30.588Z,100953.00
2019-05-14T11:59:36.036Z,100950.00
2019-05-14T12:01:41.622Z,100958.00
2019-05-14T12:03:49.933Z,100939.00
2019-05-14T12:05:53.725Z,100940.00
2019-05-14T12:07:59.234Z,100925.00
2019-05-14T12:10:04.946Z,100927.00
2019-05-14T12:12:12.374Z,100920.00
2019-05-14T12:14:19.125Z,100913.00
2019-05-14T12:16:24.684Z,100913.00
2019-05-14T12:18:30.244Z,100909.00
2019-05-14T12:20:35.466Z,100898.00
2019-05-14T12:22:40.717Z,100899.00
2019-05-14T12:24:46.246Z,100902.00
2019-05-14T12:26:51.737Z,100901.00
2019-05-14T12:28:59.426Z,100903.00
2019-05-14T12:31:04.154Z,100893.00
2019-05-14T12:33:09.378Z,100899.00
2019-05-14T12:35:14.861Z,100894.00
2019-05-14T12:37:20.334Z,100898.00
2019-05-14T12:39:25.781Z,100888.00
2019-05-14T12:41:31.234Z,100891.00
2019-05-14T12:43:39.383Z,100903.00
2019-05-14T12:45:43.678Z,100885.00
2019-05-14T12:47:50.121Z,100891.00
2019-05-14T12:49:55.349Z,100878.00
2019-05-14T12:52:16.334Z,100888.00
2019-05-14T12:54:09.284Z,100898.00
2019-05-14T12:56:14.544Z,100884.00
2019-05-14T12:58:20.441Z,100879.00
2019-05-14T13:00:25.937Z,100884.00
2019-05-14T13:02:31.141Z,100883.00
2019-05-14T13:04:36.421Z,100885.00
2019-05-14T13:06:41.693Z,100886.00
2019-05-14T13:08:49.145Z,100893.00
2019-05-14T13:10:54.029Z,100885.00
2019-05-14T13:12:59.226Z,100874.00
2019-05-14T13:15:04.537Z,100884.00
2019-05-14T13:17:10.022Z,100876.00
2019-05-14T13:19:15.560Z,100884.00
2019-05-14T13:21:20.747Z,100866.00
2019-05-14T13:23:28.998Z,100877.00
2019-05-14T13:25:33.744Z,100882.00
2019-05-14T13:27:39.288Z,100874.00
2019-05-14T13:29:44.805Z,100872.00
2019-05-14T13:31:50.204Z,100865.00
2019-05-14T13:33:55.391Z,100854.00
2019-05-14T13:36:00.793Z,100844.00
2019-05-14T13:38:13.465Z,100844.00
2019-05-14T13:40:14.036Z,100849.00
2019-05-14T13:42:19.262Z,100844.00
2019-05-14T13:44:25.328Z,100831.00
2019-05-14T13:46:30.513Z,100844.00
2019-05-14T13:48:39.608Z,100844.00
2019-05-14T13:50:43.325Z,100844.00
2019-05-14T13:53:01.928Z,100844.00
2019-05-14T13:54:55.802Z,100828.00
2019-05-14T13:57:01.327Z,100823.00
2019-05-14T13:59:09.091Z,100820.00
2019-05-14T14:01:13.420Z,100808.00
2019-05-14T14:03:19.972Z,100806.00
2019-05-14T14:05:25.584Z,100812.00
2019-05-14T14:07:30.606Z,100811.00
2019-05-14T14:09:36.135Z,100817.00
2019-05-14T14:11:41.610Z,100833.00
2019-05-14T14:13:48.911Z,100826.00
2019-05-14T14:15:54.572Z,100820.00
2019-05-14T14:18:00.460Z,100821.00
2019-05-14T14:20:08.171Z,100804.00
2019-05-14T14:22:12.845Z,100808.00
2019-05-14T14:24:19.753Z,100803.00
2019-05-14T14:26:25.353Z,100798.00
2019-05-14T14:28:30.712Z,100801.00
2019-05-14T14:30:35.895Z,100797.00
2019-05-14T14:32:41.168Z,100790.00
2019-05-14T14:34:46.585Z,100794.00
2019-05-14T14:36:55.045Z,100793.00
2019-05-14T14:38:58.995Z,100804.00
2019-05-14T14:41:04.592Z,100793.00
2019-05-14T14:43:09.727Z,100791.00
2019-05-14T14:45:15.354Z,100791.00
2019-05-14T14:47:20.521Z,100790.00
2019-05-14T14:49:28.044Z,100788.00
2019-05-14T14:51:32.998Z,100783.00
2019-05-14T14:53:53.322Z,100778.00
2019-05-14T14:55:45.479Z,100779.00
2019-05-14T14:57:54.058Z,100767.00
2019-05-14T14:59:57.483Z,100755.00
2019-05-14T15:02:02.689Z,100737.00
2019-05-14T15:04:13.471Z,100761.00
2019-05-14T15:06:15.199Z,100762.00
2019-05-14T15:08:20.661Z,100764.00
2019-05-14T15:10:28.219Z,100758.00
2019-05-14T15:12:35.746Z,100749.00
2019-05-14T15:14:39.963Z,100753.00
2019-05-14T15:16:45.723Z,100756.00
2019-05-14T15:18:51.431Z,100755.00
2019-05-14T15:20:58.862Z,100755.00
2019-05-14T15:23:04.183Z,100756.00
2019-05-14T15:25:09.464Z,100749.00
2019-05-14T15:27:15.378Z,100736.00
2019-05-14T15:29:20.765Z,100739.00
2019-05-14T15:31:25.929Z,100752.00
2019-05-14T15:33:31.363Z,100745.00
2019-05-14T15:35:36.835Z,100743.00
2019-05-14T15:37:43.271Z,100740.00
2019-05-14T15:39:49.089Z,100736.00
2019-05-14T15:41:54.580Z,100737.00
2019-05-14T15:44:01.075Z,100727.00
2019-05-14T15:46:08.515Z,100721.00
2019-05-14T15:48:13.171Z,100717.00
2019-05-14T15:50:20.073Z,100715.00
2019-05-14T15:52:28.673Z,100720.00
2019-05-14T15:54:42.027Z,100707.00
2019-05-14T15:56:39.636Z,100712.00
2019-05-14T15:58:44.709Z,100723.00
2019-05-14T16:00:50.214Z,100711.00
2019-05-14T16:02:55.581Z,100718.00
2019-05-14T16:05:00.767Z,100716.00
2019-05-14T16:07:06.181Z,100718.00
2019-05-14T16:09:11.311Z,100710.00
2019-05-14T16:11:18.687Z,100712.00
2019-05-14T16:13:23.961Z,100714.00
2019-05-14T16:15:29.441Z,100709.00
2019-05-14T16:17:34.952Z,100716.00
2019-05-14T16:19:40.384Z,100711.00
2019-05-14T16:21:45.338Z,100705.00
2019-05-14T16:23:50.737Z,100707.00
2019-05-14T16:25:56.151Z,100701.00
2019-05-14T16:28:01.239Z,100704.00
2019-05-14T16:30:09.410Z,100706.00
2019-05-14T16:32:14.284Z,100703.00
2019-05-14T16:34:19.446Z,100702.00
2019-05-14T16:36:24.789Z,100709.00
2019-05-14T16:38:30.647Z,100701.00
2019-05-14T16:40:36.218Z,100698.00
2019-05-14T16:42:41.502Z,100697.00
2019-05-14T16:44:47.272Z,100698.00
2019-05-14T16:46:52.464Z,100695.00
2019-05-14T16:48:58.319Z,100693.00
2019-05-14T16:51:04.662Z,100701.00
2019-05-14T16:53:11.724Z,100706.00
2019-05-14T16:55:26.173Z,100707.00
2019-05-14T16:57:23.950Z,100707.00
2019-05-14T16:59:29.746Z,100705.00
2019-05-14T17:01:35.073Z,100704.00
2019-05-14T17:03:40.289Z,100705.00
2019-05-14T17:05:46.001Z,100701.00
2019-05-14T17:07:52.008Z,100703.00
2019-05-14T17:09:58.128Z,100695.00
2019-05-14T17:12:03.388Z,100696.00
2019-05-14T17:14:08.838Z,100705.00
2019-05-14T17:16:14.286Z,100694.00
2019-05-14T17:18:19.741Z,100691.00
2019-05-14T17:20:24.919Z,100697.00
2019-05-14T17:22:33.553Z,100703.00
2019-05-14T17:24:39.497Z,100704.00
2019-05-14T17:26:44.261Z,100705.00
2019-05-14T17:28:49.428Z,100706.00
2019-05-14T17:30:55.160Z,100712.00
2019-05-14T17:33:00.243Z,100710.00
2019-05-14T17:35:05.713Z,100706.00
2019-05-14T17:37:11.441Z,100700.00
2019-05-14T17:39:18.641Z,100687.00
2019-05-14T17:41:23.689Z,100693.00
2019-05-14T17:43:29.033Z,100689.00
2019-05-14T17:45:34.495Z,100689.00
2019-05-14T17:47:39.788Z,100693.00
2019-05-14T17:49:45.139Z,100696.00
2019-05-14T17:51:50.973Z,100696.00
2019-05-14T17:53:58.535Z,100701.00
2019-05-14T17:56:03.863Z,100699.00
2019-05-14T17:58:13.069Z,100700.00
2019-05-14T18:00:18.158Z,100689.00
2019-05-14T18:02:23.638Z,100690.00
2019-05-14T18:04:28.992Z,100689.00
2019-05-14T18:06:34.626Z,100683.00
2019-05-14T18:08:40.022Z,100681.00
2019-05-14T18:10:45.555Z,100682.00
2019-05-14T18:12:50.929Z,100682.00
2019-05-14T18:14:58.739Z,100670.00
2019-05-14T18:17:03.885Z,100675.00
2019-05-14T18:19:09.978Z,100678.00
2019-05-14T18:21:15.325Z,100679.00
2019-05-14T18:23:20.875Z,100675.00
2019-05-14T18:25:28.873Z,100681.00
2019-05-14T18:27:33.470Z,100685.00
2019-05-14T18:29:39.107Z,100685.00
2019-05-14T18:31:45.544Z,100690.00
2019-05-14T18:33:51.074Z,100680.00
2019-05-14T18:35:58.779Z,100670.00
2019-05-14T18:38:03.596Z,100669.00
2019-05-14T18:40:09.888Z,100673.00
2019-05-14T18:42:15.391Z,100677.00
2019-05-14T18:44:20.521Z,100674.00
2019-05-14T18:46:28.365Z,100672.00
2019-05-14T18:48:32.944Z,100670.00
2019-05-14T18:50:38.743Z,100676.00
2019-05-14T18:52:43.862Z,100676.00
2019-05-14T18:54:49.337Z,100678.00
2019-05-14T18:56:55.005Z,100688.00
2019-05-14T18:59:00.701Z,100687.00
2019-05-14T19:01:08.680Z,100679.00
2019-05-14T19:03:14.237Z,100679.00
2019-05-14T19:05:19.423Z,100683.00
2019-05-14T19:07:24.975Z,100688.00
2019-05-14T19:09:30.175Z,100684.00
2019-05-14T19:11:35.223Z,100683.00
2019-05-14T19:13:40.750Z,100682.00
2019-05-14T19:15:48.175Z,100681.00
2019-05-14T19:17:52.736Z,100685.00
2019-05-14T19:19:58.881Z,100685.00
2019-05-14T19:22:04.826Z,100682.00
2019-05-14T19:24:09.933Z,100689.00
2019-05-14T19:26:15.349Z,100686.00
2019-05-14T19:28:21.101Z,100688.00
2019-05-14T19:30:28.470Z,100681.00
2019-05-14T19:32:33.659Z,100687.00
2019-05-14T19:34:39.745Z,100692.00
2019-05-14T19:36:45.305Z,100688.00
2019-05-14T19:38:50.765Z,100688.00
2019-05-14T19:40:55.952Z,100683.00
2019-05-14T19:43:01.099Z,100690.00
2019-05-14T19:45:08.478Z,100683.00
2019-05-14T19:47:14.369Z,100684.00
2019-05-14T19:49:20.322Z,100687.00
2019-05-14T19:51:27.791Z,100687.00
2019-05-14T19:53:33.085Z,100680.00
2019-05-14T19:55:39.199Z,100681.00
2019-05-14T19:57:45.063Z,100685.00
2019-05-14T19:59:50.332Z,100674.00
2019-05-14T20:01:55.861Z,100680.00
2019-05-14T20:04:01.239Z,100677.00
2019-05-14T20:06:08.798Z,100680.00
2019-05-14T20:08:13.508Z,100686.00
2019-05-14T20:10:18.795Z,100685.00
2019-05-14T20:12:24.573Z,100676.00
2019-05-14T20:14:29.614Z,100671.00
2019-05-14T20:16:34.561Z,100680.00
2019-05-14T20:18:39.658Z,100684.00
2019-05-14T20:20:44.880Z,100683.00
2019-05-14T20:22:50.148Z,100691.00
2019-05-14T20:24:55.282Z,100688.00
2019-05-14T20:27:07.795Z,100687.00
2019-05-14T20:29:08.738Z,100689.00
2019-05-14T20:31:13.944Z,100679.00
2019-05-14T20:33:19.284Z,100684.00
2019-05-14T20:35:31.643Z,100684.00
2019-05-14T20:37:31.821Z,100682.00
2019-05-14T20:39:39.120Z,100682.00
2019-05-14T20:41:44.295Z,100674.00
2019-05-14T20:43:49.650Z,100680.00
2019-05-14T20:45:54.832Z,100672.00
2019-05-14T20:48:00.041Z,100683.00
2019-05-14T20:50:05.789Z,100679.00
2019-05-14T20:52:11.125Z,100672.00
2019-05-14T20:54:18.341Z,100675.00
2019-05-14T20:56:24.285Z,100671.00
2019-05-14T20:58:30.309Z,100672.00
2019-05-14T21:00:35.480Z,100674.00
2019-05-14T21:02:40.625Z,100668.00
2019-05-14T21:04:53.390Z,100676.00
2019-05-14T21:06:52.868Z,100677.00
2019-05-14T21:08:58.550Z,100675.00
2019-05-14T21:11:04.324Z,100678.00
2019-05-14T21:13:09.432Z,100668.00
2019-05-14T21:15:15.036Z,100668.00
2019-05-14T21:17:20.135Z,100668.00
2019-05-14T21:19:25.300Z,100665.00
2019-05-14T21:21:30.826Z,100671.00
2019-05-14T21:23:35.774Z,100675.00
2019-05-14T21:25:40.874Z,100671.00
2019-05-14T21:27:51.315Z,100664.00
2019-05-14T21:29:53.014Z,100677.00
2019-05-14T21:32:01.305Z,100664.00
2019-05-14T21:34:05.220Z,100665.00
2019-05-14T21:36:12.381Z,100667.00
2019-05-14T21:38:19.136Z,100674.00
2019-05-14T21:40:29.132Z,100664.00
2019-05-14T21:42:34.539Z,100668.00
2019-05-14T21:44:39.891Z,100667.00
2019-05-14T21:46:48.137Z,100661.00
2019-05-14T21:48:52.732Z,100672.00
2019-05-14T21:51:00.582Z,100662.00
2019-05-14T21:53:04.813Z,100663.00
2019-05-14T21:55:10.655Z,100655.00
2019-05-14T21:57:15.668Z,100662.00
2019-05-14T21:59:20.747Z,100660.00
2019-05-14T22:01:27.753Z,100659.00
2019-05-14T22:03:33.911Z,100665.00
2019-05-14T22:05:39.466Z,100658.00
2019-05-14T22:07:44.586Z,100666.00
2019-05-14T22:09:49.643Z,100659.00
2019-05-14T22:11:55.193Z,100655.00
2019-05-14T22:14:00.370Z,100661.00
2019-05-14T22:16:05.622Z,100655.00
2019-05-14T22:18:17.557Z,100658.00
2019-05-14T22:20:20.142Z,100655.00
2019-05-14T22:22:25.203Z,100655.00
2019-05-14T22:24:30.597Z,100655.00
2019-05-14T22:26:35.698Z,100655.00
2019-05-14T22:28:41.416Z,100663.00
2019-05-14T22:30:46.531Z,100655.00
2019-05-14T22:32:51.912Z,100656.00
2019-05-14T22:34:58.581Z,100657.00
2019-05-14T22:37:04.341Z,100653.00
2019-05-14T22:39:10.122Z,100658.00
2019-05-14T22:41:18.185Z,100644.00
2019-05-14T22:43:23.320Z,100653.00
2019-05-14T22:45:28.515Z,100651.00
2019-05-14T22:47:34.228Z,100644.00
2019-05-14T22:49:39.817Z,100642.00
2019-05-14T22:51:45.182Z,100650.00
2019-05-14T22:53:50.200Z,100647.00
2019-05-14T22:55:55.609Z,100656.00
2019-05-14T22:58:01.191Z,100647.00
2019-05-14T23:00:07.351Z,100647.00
2019-05-14T23:02:13.038Z,100644.00
2019-05-14T23:04:18.389Z,100645.00
2019-05-14T23:06:23.673Z,100646.00
2019-05-14T23:08:28.768Z,100652.00
2019-05-14T23:10:33.991Z,100642.00
2019-05-14T23:12:39.365Z,100638.00
2019-05-14T23:14:44.520Z,100646.00
2019-05-14T23:16:49.684Z,100637.00
2019-05-14T23:18:55.330Z,100642.00
2019-05-14T23:21:00.950Z,100650.00
2019-05-14T23:23:08.769Z,100644.00
2019-05-14T23:25:13.642Z,100651.00
2019-05-14T23:27:19.060Z,100645.00
2019-05-14T23:29:24.475Z,100641.00
2019-05-14T23:31:29.930Z,100644.00
2019-05-14T23:33:35.031Z,100639.00
2019-05-14T23:35:41.274Z,100637.00
2019-05-14T23:37:48.635Z,100637.00
2019-05-14T23:39:53.512Z,100630.00
2019-05-14T23:41:59.604Z,100629.00
2019-05-14T23:44:04.859Z,100632.00
2019-05-14T23:46:10.099Z,100626.00
2019-05-14T23:48:15.133Z,100627.00
2019-05-14T23:50:20.599Z,100625.00
2019-05-14T23:52:25.846Z,100621.00
2019-05-14T23:54:31.183Z,100623.00
2019-05-14T23:56:38.451Z,100618.00